createdAt,value
2022-08-19T00:01:55.565Z,7.45
2022-08-19T00:04:26.802Z,7.68
2022-08-19T00:06:53.795Z,7.38
2022-08-19T00:09:22.709Z,7.21
2022-08-19T00:11:50.091Z,7.29
2022-08-19T00:14:18.489Z,7.16
2022-08-19T00:16:47.768Z,6.84
2022-08-19T00:19:15.280Z,6.18
2022-08-19T00:21:42.790Z,6.01
2022-08-19T00:24:10.763Z,6.04
2022-08-19T00:26:38.968Z,5.68
2022-08-19T00:29:08.679Z,5.40
2022-08-19T00:31:35.205Z,4.46
2022-08-19T00:34:01.704Z,4.56
2022-08-19T00:36:28.231Z,4.07
2022-08-19T00:38:55.002Z,4.04
2022-08-19T00:41:24.328Z,3.54
2022-08-19T00:44:07.021Z,3.22
2022-08-19T00:46:36.958Z,3.35
2022-08-19T00:49:10.662Z,3.44
2022-08-19T00:51:37.667Z,3.99
2022-08-19T00:54:05.574Z,4.60
2022-08-19T00:56:32.383Z,5.06
2022-08-19T00:59:00.325Z,5.13
2022-08-19T01:01:27.171Z,5.17
2022-08-19T01:03:57.866Z,5.18
2022-08-19T01:06:26.917Z,4.93
2022-08-19T01:08:55.536Z,4.96
2022-08-19T01:11:22.121Z,4.97
2022-08-19T01:13:52.837Z,4.56
2022-08-19T01:16:23.860Z,4.77
2022-08-19T01:18:50.720Z,4.55
2022-08-19T01:21:35.364Z,4.72
2022-08-19T01:24:02.087Z,4.50
2022-08-19T01:26:29.408Z,4.72
2022-08-19T01:29:00.871Z,4.71
2022-08-19T01:31:30.012Z,4.50
2022-08-19T01:34:00.874Z,4.51
2022-08-19T01:36:32.465Z,4.70
2022-08-19T01:39:00.401Z,4.77
2022-08-19T01:41:27.461Z,4.12
2022-08-19T01:44:13.731Z,4.16
2022-08-19T01:46:42.042Z,4.06
2022-08-19T01:49:09.464Z,4.17
2022-08-19T01:51:40.200Z,3.80
2022-08-19T01:54:08.875Z,3.64
2022-08-19T01:56:35.883Z,3.82
2022-08-19T01:59:13.075Z,2.90
2022-08-19T02:01:39.749Z,2.66
2022-08-19T02:04:06.286Z,2.58
2022-08-19T02:06:33.212Z,2.74
2022-08-19T02:08:59.906Z,2.94
2022-08-19T02:11:30.684Z,3.32
2022-08-19T02:13:57.208Z,3.93
2022-08-19T02:16:24.456Z,4.40
2022-08-19T02:18:52.035Z,4.23
2022-08-19T02:21:20.891Z,4.16
2022-08-19T02:23:48.849Z,4.08
2022-08-19T02:26:16.274Z,3.87
2022-08-19T02:28:43.548Z,3.94
2022-08-19T02:31:15.979Z,3.97
2022-08-19T02:33:42.775Z,3.85
2022-08-19T02:36:12.118Z,4.02
2022-08-19T02:38:39.187Z,4.11
2022-08-19T02:41:12.026Z,4.03
2022-08-19T02:43:39.009Z,4.14
2022-08-19T02:46:14.416Z,3.64
2022-08-19T02:48:40.952Z,3.58
2022-08-19T02:51:07.528Z,3.75
2022-08-19T02:53:34.058Z,3.84
2022-08-19T02:56:00.584Z,3.90
2022-08-19T02:58:27.115Z,3.72
2022-08-19T03:00:56.634Z,3.70
2022-08-19T03:03:23.362Z,3.62
2022-08-19T03:05:56.439Z,3.74
2022-08-19T03:08:25.383Z,3.14
2022-08-19T03:10:52.031Z,3.08
2022-08-19T03:13:18.923Z,3.03
2022-08-19T03:15:47.635Z,3.11
2022-08-19T03:18:15.489Z,3.28
2022-08-19T03:20:48.819Z,3.22
2022-08-19T03:23:17.381Z,3.11
2022-08-19T03:25:58.383Z,2.90
2022-08-19T03:28:36.224Z,3.31
2022-08-19T03:31:06.735Z,2.78
2022-08-19T03:33:53.319Z,2.20
2022-08-19T03:36:23.941Z,2.18
2022-08-19T03:38:57.494Z,2.36
2022-08-19T03:41:34.326Z,2.01
2022-08-19T03:44:18.928Z,2.07
2022-08-19T03:46:51.492Z,1.90
2022-08-19T03:49:19.554Z,1.66
2022-08-19T03:51:48.290Z,1.87
2022-08-19T03:54:18.173Z,1.94
2022-08-19T03:56:46.737Z,2.00
2022-08-19T03:59:17.054Z,1.87
2022-08-19T04:01:43.794Z,1.72
2022-08-19T04:04:11.051Z,1.85
2022-08-19T04:06:39.983Z,1.78
2022-08-19T04:09:10.124Z,1.85
2022-08-19T04:11:43.653Z,1.82
2022-08-19T04:14:31.586Z,1.80
2022-08-19T04:17:00.381Z,1.98
2022-08-19T04:19:27.889Z,1.95
2022-08-19T04:21:56.140Z,1.78
2022-08-19T04:24:23.481Z,1.93
2022-08-19T04:26:51.785Z,1.83
2022-08-19T04:29:25.422Z,1.81
2022-08-19T04:31:54.264Z,1.48
2022-08-19T04:34:24.463Z,1.81
2022-08-19T04:36:52.976Z,1.72
2022-08-19T04:39:23.965Z,1.61
2022-08-19T04:41:51.132Z,1.44
2022-08-19T04:44:18.108Z,1.57
2022-08-19T04:46:51.229Z,1.55
2022-08-19T04:49:22.210Z,1.73
2022-08-19T04:51:50.549Z,1.67
2022-08-19T04:54:37.443Z,1.80
2022-08-19T04:57:08.331Z,1.70
2022-08-19T04:59:36.339Z,1.85
2022-08-19T05:02:04.691Z,1.96
2022-08-19T05:04:31.329Z,1.91
2022-08-19T05:07:01.023Z,1.93
2022-08-19T05:09:28.438Z,2.03
2022-08-19T05:12:14.986Z,2.05
2022-08-19T05:14:41.526Z,2.14
2022-08-19T05:17:26.453Z,2.07
2022-08-19T05:19:53.600Z,1.98
2022-08-19T05:22:20.138Z,2.20
2022-08-19T05:25:09.300Z,2.19
2022-08-19T05:27:33.420Z,2.25
2022-08-19T05:30:00.900Z,2.57
2022-08-19T05:32:27.470Z,2.11
2022-08-19T05:34:54.825Z,2.13
2022-08-19T05:37:21.336Z,2.16
2022-08-19T05:39:51.372Z,2.31
2022-08-19T05:42:18.224Z,2.32
2022-08-19T05:44:45.016Z,2.21
2022-08-19T05:47:14.331Z,2.13
2022-08-19T05:49:41.091Z,2.36
2022-08-19T05:52:11.598Z,2.43
2022-08-19T05:54:40.324Z,2.42
2022-08-19T05:57:07.504Z,2.57
2022-08-19T05:59:35.475Z,2.67
2022-08-19T06:02:05.485Z,2.71
2022-08-19T06:04:31.996Z,2.75
2022-08-19T06:06:58.502Z,2.97
2022-08-19T06:09:25.622Z,3.09
2022-08-19T06:11:56.113Z,3.29
2022-08-19T06:14:28.083Z,3.23
2022-08-19T06:16:54.982Z,3.25
2022-08-19T06:19:23.439Z,3.24
2022-08-19T06:21:53.075Z,3.27
2022-08-19T06:24:23.144Z,3.52
2022-08-19T06:26:50.781Z,3.61
2022-08-19T06:29:23.747Z,3.63
2022-08-19T06:31:53.874Z,3.77
2022-08-19T06:34:21.204Z,4.08
2022-08-19T06:36:50.926Z,3.91
2022-08-19T06:39:21.038Z,3.84
2022-08-19T06:41:52.458Z,4.02
2022-08-19T06:44:23.498Z,4.15
2022-08-19T06:46:54.714Z,4.11
2022-08-19T06:49:23.015Z,4.06
2022-08-19T06:51:50.458Z,3.74
2022-08-19T06:54:20.481Z,4.05
2022-08-19T06:56:48.222Z,3.99
2022-08-19T06:59:19.545Z,4.09
2022-08-19T07:01:49.432Z,4.12
2022-08-19T07:04:18.445Z,5.01
2022-08-19T07:06:45.885Z,5.29
2022-08-19T07:09:21.756Z,5.01
2022-08-19T07:11:51.080Z,5.05
2022-08-19T07:14:23.077Z,5.50
2022-08-19T07:16:51.244Z,5.58
2022-08-19T07:19:20.087Z,5.67
2022-08-19T07:21:48.539Z,6.35
2022-08-19T07:24:16.416Z,6.18
2022-08-19T07:26:44.149Z,6.41
2022-08-19T07:29:12.230Z,6.93
2022-08-19T07:31:40.712Z,6.83
2022-08-19T07:34:12.477Z,7.40
2022-08-19T07:36:41.545Z,7.38
2022-08-19T07:39:13.730Z,7.09
2022-08-19T07:41:40.393Z,8.03
2022-08-19T07:44:08.553Z,7.67
2022-08-19T07:46:38.553Z,7.85
2022-08-19T07:49:07.071Z,8.18
2022-08-19T07:51:36.980Z,9.72
2022-08-19T07:54:04.686Z,7.06
2022-08-19T07:56:31.254Z,8.63
2022-08-19T07:58:58.130Z,8.02
2022-08-19T08:01:27.931Z,7.43
2022-08-19T08:03:57.418Z,7.02
2022-08-19T08:06:25.022Z,7.45
2022-08-19T08:08:55.505Z,6.92
2022-08-19T08:11:22.101Z,6.88
2022-08-19T08:14:01.265Z,6.42
2022-08-19T08:16:35.047Z,6.89
2022-08-19T08:19:01.935Z,7.01
2022-08-19T08:21:28.479Z,7.37
2022-08-19T08:23:56.269Z,7.42
2022-08-19T08:26:23.661Z,7.83
2022-08-19T08:28:50.146Z,7.22
2022-08-19T08:31:16.765Z,6.50
2022-08-19T08:33:43.294Z,6.87
2022-08-19T08:36:10.220Z,6.76
2022-08-19T08:38:41.543Z,7.21
2022-08-19T08:41:35.764Z,7.18
2022-08-19T08:44:03.891Z,7.62
2022-08-19T08:46:58.978Z,7.72
2022-08-19T08:49:37.410Z,7.29
2022-08-19T08:52:32.210Z,7.97
2022-08-19T08:55:10.200Z,7.72
2022-08-19T08:57:49.237Z,7.74
2022-08-19T09:00:29.698Z,7.89
2022-08-19T09:02:59.296Z,7.99
2022-08-19T09:05:57.511Z,7.35
2022-08-19T09:08:35.546Z,7.80
2022-08-19T09:11:10.361Z,7.29
2022-08-19T09:13:59.288Z,7.48
2022-08-19T09:16:28.072Z,8.26
2022-08-19T09:18:58.830Z,7.74
2022-08-19T09:21:30.583Z,7.48
2022-08-19T09:24:00.268Z,7.72
2022-08-19T09:26:47.147Z,8.13
2022-08-19T09:29:14.078Z,7.95
2022-08-19T09:31:40.664Z,7.67
2022-08-19T09:34:07.143Z,8.34
2022-08-19T09:36:35.329Z,8.11
2022-08-19T09:39:02.150Z,7.03
2022-08-19T09:41:29.052Z,6.78
2022-08-19T09:43:58.574Z,7.35
2022-08-19T09:46:29.068Z,7.51
2022-08-19T09:49:02.938Z,7.26
2022-08-19T09:51:34.142Z,6.24
2022-08-19T09:54:05.472Z,6.65
2022-08-19T09:56:33.934Z,6.96
2022-08-19T09:59:03.652Z,6.70
2022-08-19T10:01:32.725Z,6.03
2022-08-19T10:04:04.339Z,6.85
2022-08-19T10:06:38.216Z,6.45
2022-08-19T10:09:13.603Z,6.30
2022-08-19T10:11:46.995Z,6.33
2022-08-19T10:14:19.270Z,6.48
2022-08-19T10:16:45.878Z,6.34
2022-08-19T10:19:12.396Z,7.01
2022-08-19T10:21:38.920Z,6.34
2022-08-19T10:24:07.149Z,6.77
2022-08-19T10:26:39.934Z,7.10
2022-08-19T10:29:09.347Z,7.07
2022-08-19T10:32:01.095Z,7.45
2022-08-19T10:34:27.841Z,7.63
2022-08-19T10:37:00.815Z,7.19
2022-08-19T10:39:31.262Z,7.43
2022-08-19T10:41:58.782Z,7.60
2022-08-19T10:44:32.011Z,7.61
2022-08-19T10:47:00.461Z,7.75
2022-08-19T10:49:27.053Z,7.97
2022-08-19T10:51:55.734Z,7.62
2022-08-19T10:54:29.535Z,7.66
2022-08-19T10:56:58.663Z,7.65
2022-08-19T10:59:32.604Z,7.28
2022-08-19T11:02:04.776Z,7.81
2022-08-19T11:04:31.271Z,8.46
2022-08-19T11:06:57.769Z,8.68
2022-08-19T11:09:33.546Z,8.36
2022-08-19T11:12:02.988Z,7.83
2022-08-19T11:14:32.099Z,8.02
2022-08-19T11:17:01.890Z,8.18
2022-08-19T11:19:28.381Z,8.34
2022-08-19T11:21:54.987Z,8.33
2022-08-19T11:24:26.580Z,8.07
2022-08-19T11:26:55.393Z,8.15
2022-08-19T11:29:22.617Z,7.97
2022-08-19T11:31:50.768Z,8.63
2022-08-19T11:34:21.086Z,9.39
2022-08-19T11:36:49.051Z,8.54
2022-08-19T11:39:19.249Z,8.30
2022-08-19T11:41:45.818Z,8.09
2022-08-19T11:44:12.411Z,8.51
2022-08-19T11:46:39.187Z,8.59
2022-08-19T11:49:10.672Z,8.57
2022-08-19T11:51:39.987Z,8.68
2022-08-19T11:54:07.141Z,8.46
2022-08-19T11:56:33.637Z,8.12
2022-08-19T11:59:01.699Z,7.92
2022-08-19T12:01:28.472Z,7.77
2022-08-19T12:03:57.157Z,7.59
2022-08-19T12:06:29.940Z,8.16
2022-08-19T12:08:58.177Z,7.34
2022-08-19T12:11:25.201Z,7.61
2022-08-19T12:13:53.016Z,7.51
2022-08-19T12:16:22.850Z,7.51
2022-08-19T12:18:49.497Z,7.39
2022-08-19T12:21:19.366Z,8.18
2022-08-19T12:23:45.897Z,7.13
2022-08-19T12:26:13.154Z,7.37
2022-08-19T12:28:39.956Z,7.19
2022-08-19T12:31:06.932Z,7.08
2022-08-19T12:33:33.907Z,7.13
2022-08-19T12:36:09.082Z,7.34
2022-08-19T12:38:36.035Z,7.25
2022-08-19T12:41:05.106Z,7.29
2022-08-19T12:43:31.791Z,6.79
2022-08-19T12:45:58.379Z,7.07
2022-08-19T12:48:33.198Z,7.22
2022-08-19T12:51:01.761Z,7.33
2022-08-19T12:53:28.510Z,7.65
2022-08-19T12:56:01.806Z,7.34
2022-08-19T12:58:29.642Z,7.53
2022-08-19T13:00:56.150Z,7.58
2022-08-19T13:03:22.876Z,7.82
2022-08-19T13:05:51.421Z,7.84
2022-08-19T13:08:17.918Z,8.30
2022-08-19T13:10:44.454Z,8.19
2022-08-19T13:13:11.025Z,8.36
2022-08-19T13:15:41.371Z,8.58
2022-08-19T13:18:10.039Z,8.36
2022-08-19T13:20:38.808Z,8.67
2022-08-19T13:23:05.506Z,8.32
2022-08-19T13:25:32.026Z,8.32
2022-08-19T13:28:00.058Z,9.07
2022-08-19T13:30:26.972Z,8.82
2022-08-19T13:32:53.602Z,8.06
2022-08-19T13:35:20.157Z,8.56
2022-08-19T13:37:46.648Z,9.10
2022-08-19T13:40:19.736Z,8.95
2022-08-19T13:42:49.467Z,8.58
2022-08-19T13:45:19.963Z,8.92
2022-08-19T13:47:48.299Z,8.44
2022-08-19T13:50:18.891Z,8.42
2022-08-19T13:52:46.364Z,8.11
2022-08-19T13:55:13.271Z,8.73
2022-08-19T13:57:39.738Z,8.25
2022-08-19T14:00:18.390Z,8.30
2022-08-19T14:02:47.491Z,9.32
2022-08-19T14:05:16.694Z,8.84
2022-08-19T14:07:43.208Z,9.53
2022-08-19T14:10:13.374Z,9.47
2022-08-19T14:12:40.522Z,10.11
2022-08-19T14:15:09.324Z,10.22
2022-08-19T14:17:39.708Z,10.49
2022-08-19T14:20:10.937Z,10.39
2022-08-19T14:22:41.627Z,10.36
2022-08-19T14:25:10.942Z,10.24
2022-08-19T14:27:40.515Z,10.42
2022-08-19T14:30:09.958Z,10.89
2022-08-19T14:32:36.672Z,10.47
2022-08-19T14:35:04.371Z,10.56
2022-08-19T14:37:30.900Z,10.96
2022-08-19T14:39:57.492Z,11.33
2022-08-19T14:42:24.047Z,11.33
2022-08-19T14:44:50.600Z,10.53
2022-08-19T14:47:17.197Z,10.49
2022-08-19T14:49:48.423Z,10.34
2022-08-19T14:52:15.218Z,10.50
2022-08-19T14:54:41.784Z,10.46
2022-08-19T14:57:08.317Z,9.99
2022-08-19T14:59:36.062Z,10.66
2022-08-19T15:02:20.245Z,11.12
2022-08-19T15:04:58.029Z,10.77
2022-08-19T15:07:25.754Z,10.10
2022-08-19T15:09:55.838Z,9.96
2022-08-19T15:12:22.474Z,10.46
2022-08-19T15:14:49.132Z,11.04
2022-08-19T15:17:18.584Z,10.95
2022-08-19T15:19:46.078Z,11.23
2022-08-19T15:22:12.681Z,11.49
2022-08-19T15:24:47.892Z,11.55
2022-08-19T15:27:15.044Z,11.92
2022-08-19T15:29:41.662Z,12.23
2022-08-19T15:32:08.980Z,12.13
2022-08-19T15:34:36.187Z,11.24
2022-08-19T15:37:03.180Z,11.00
2022-08-19T15:39:29.759Z,11.16
2022-08-19T15:41:56.293Z,11.45
2022-08-19T15:44:22.901Z,11.44
2022-08-19T15:46:49.420Z,12.29
2022-08-19T15:49:18.879Z,12.30
2022-08-19T15:51:49.086Z,12.07
2022-08-19T15:54:21.256Z,11.71
2022-08-19T15:56:57.882Z,11.82
2022-08-19T15:59:25.658Z,11.57
2022-08-19T16:01:52.163Z,10.82
2022-08-19T16:04:19.082Z,10.57
2022-08-19T16:06:51.833Z,10.73
2022-08-19T16:09:26.988Z,10.68
2022-08-19T16:12:02.407Z,10.44
2022-08-19T16:14:32.598Z,11.26
2022-08-19T16:16:59.683Z,10.81
2022-08-19T16:19:26.313Z,11.93
2022-08-19T16:21:55.506Z,12.02
2022-08-19T16:24:25.749Z,11.72
2022-08-19T16:26:52.755Z,11.17
2022-08-19T16:29:22.097Z,11.92
2022-08-19T16:32:12.162Z,11.50
2022-08-19T16:34:40.998Z,12.42
2022-08-19T16:37:08.629Z,13.54
2022-08-19T16:39:35.748Z,12.47
2022-08-19T16:42:03.054Z,12.20
2022-08-19T16:44:31.386Z,12.65
2022-08-19T16:46:59.328Z,12.40
2022-08-19T16:49:54.645Z,12.52
2022-08-19T16:52:15.332Z,12.35
2022-08-19T16:54:43.704Z,12.65
2022-08-19T16:57:11.804Z,13.12
2022-08-19T16:59:39.243Z,12.37
2022-08-19T17:02:10.665Z,12.85
2022-08-19T17:04:37.228Z,12.65
2022-08-19T17:07:03.764Z,11.69
2022-08-19T17:09:32.770Z,12.28
2022-08-19T17:11:59.284Z,12.52
2022-08-19T17:14:25.805Z,12.94
2022-08-19T17:16:52.312Z,12.80
2022-08-19T17:19:18.864Z,12.68
2022-08-19T17:21:45.363Z,12.19
2022-08-19T17:24:11.875Z,12.46
2022-08-19T17:26:39.033Z,12.25
2022-08-19T17:29:05.698Z,12.37
2022-08-19T17:31:32.689Z,12.24
2022-08-19T17:33:59.502Z,12.67
2022-08-19T17:36:29.682Z,12.37
2022-08-19T17:38:58.795Z,12.36
2022-08-19T17:41:27.765Z,12.87
2022-08-19T17:43:54.586Z,13.86
2022-08-19T17:46:21.305Z,13.16
2022-08-19T17:48:51.849Z,13.83
2022-08-19T17:51:26.086Z,13.26
2022-08-19T17:53:54.152Z,12.98
2022-08-19T17:56:21.728Z,13.22
2022-08-19T17:58:57.934Z,12.87
2022-08-19T18:01:34.105Z,13.75
2022-08-19T18:04:15.842Z,14.25
2022-08-19T18:06:52.623Z,13.23
2022-08-19T18:09:24.003Z,13.67
2022-08-19T18:11:52.465Z,13.57
2022-08-19T18:14:20.839Z,14.01
2022-08-19T18:16:47.361Z,14.64
2022-08-19T18:19:13.874Z,14.08
2022-08-19T18:21:40.381Z,14.24
2022-08-19T18:24:06.931Z,14.21
2022-08-19T18:26:33.435Z,13.40
2022-08-19T18:28:59.963Z,13.10
2022-08-19T18:31:28.777Z,12.67
2022-08-19T18:33:55.334Z,12.84
2022-08-19T18:36:43.590Z,12.56
2022-08-19T18:39:08.440Z,12.63
2022-08-19T18:41:35.092Z,12.59
2022-08-19T18:44:01.636Z,12.58
2022-08-19T18:46:28.364Z,12.71
2022-08-19T18:48:59.495Z,12.47
2022-08-19T18:51:28.407Z,13.46
2022-08-19T18:53:55.884Z,13.41
2022-08-19T18:56:22.376Z,13.66
2022-08-19T18:58:48.970Z,15.26
2022-08-19T19:01:21.159Z,14.70
2022-08-19T19:03:51.338Z,13.78
2022-08-19T19:06:22.118Z,13.67
2022-08-19T19:08:50.131Z,13.70
2022-08-19T19:11:24.528Z,13.39
2022-08-19T19:13:51.771Z,13.18
2022-08-19T19:16:22.415Z,12.92
2022-08-19T19:18:50.775Z,12.96
2022-08-19T19:21:17.316Z,13.06
2022-08-19T19:23:43.840Z,13.17
2022-08-19T19:26:12.961Z,13.81
2022-08-19T19:28:41.762Z,13.79
2022-08-19T19:31:08.279Z,13.38
2022-08-19T19:33:34.780Z,13.69
2022-08-19T19:36:01.278Z,13.42
2022-08-19T19:38:27.763Z,13.19
2022-08-19T19:40:54.278Z,13.80
2022-08-19T19:43:20.783Z,13.64
2022-08-19T19:45:47.614Z,14.06
2022-08-19T19:48:14.327Z,13.75
2022-08-19T19:50:40.937Z,13.77
2022-08-19T19:53:07.470Z,14.38
2022-08-19T19:55:34.095Z,14.05
2022-08-19T19:58:00.614Z,14.56
2022-08-19T20:00:27.147Z,15.32
2022-08-19T20:02:53.664Z,14.37
2022-08-19T20:05:22.068Z,14.00
2022-08-19T20:07:50.427Z,13.88
2022-08-19T20:10:16.976Z,13.63
2022-08-19T20:12:43.511Z,12.80
2022-08-19T20:15:10.021Z,12.72
2022-08-19T20:17:36.626Z,14.12
2022-08-19T20:20:03.555Z,13.57
2022-08-19T20:22:33.934Z,13.30
2022-08-19T20:25:00.600Z,13.85
2022-08-19T20:27:27.130Z,13.59
2022-08-19T20:29:57.771Z,13.02
2022-08-19T20:32:24.275Z,12.65
2022-08-19T20:34:50.800Z,13.05
2022-08-19T20:37:17.314Z,13.04
2022-08-19T20:39:43.887Z,12.62
2022-08-19T20:42:10.446Z,12.71
2022-08-19T20:44:36.985Z,12.51
2022-08-19T20:47:04.165Z,12.28
2022-08-19T20:49:31.223Z,11.87
2022-08-19T20:51:57.978Z,11.52
2022-08-19T20:54:25.223Z,12.49
2022-08-19T20:56:52.112Z,12.44
2022-08-19T20:59:19.154Z,11.94
2022-08-19T21:01:46.920Z,11.93
2022-08-19T21:04:13.798Z,11.78
2022-08-19T21:06:40.346Z,12.10
2022-08-19T21:09:08.777Z,12.53
2022-08-19T21:11:35.798Z,12.30
2022-08-19T21:14:02.454Z,12.16
2022-08-19T21:16:28.939Z,12.20
2022-08-19T21:18:55.493Z,11.52
2022-08-19T21:21:22.036Z,11.31
2022-08-19T21:23:49.663Z,11.53
2022-08-19T21:26:16.475Z,11.52
2022-08-19T21:28:43.007Z,11.58
2022-08-19T21:31:10.166Z,11.34
2022-08-19T21:33:38.170Z,11.77
2022-08-19T21:36:05.277Z,11.81
2022-08-19T21:38:31.953Z,11.31
2022-08-19T21:40:58.676Z,11.19
2022-08-19T21:43:25.476Z,11.74
2022-08-19T21:45:51.994Z,11.29
2022-08-19T21:48:18.921Z,11.33
2022-08-19T21:50:49.340Z,10.92
2022-08-19T21:53:17.667Z,10.77
2022-08-19T21:55:44.422Z,10.87
2022-08-19T21:58:11.155Z,10.70
2022-08-19T22:00:38.207Z,10.81
2022-08-19T22:03:05.424Z,10.81
2022-08-19T22:05:32.710Z,10.46
2022-08-19T22:08:01.709Z,10.47
2022-08-19T22:10:32.006Z,10.70
2022-08-19T22:12:58.576Z,10.87
2022-08-19T22:15:27.165Z,10.75
2022-08-19T22:17:53.763Z,10.71
2022-08-19T22:20:23.525Z,10.87
2022-08-19T22:22:53.990Z,9.94
2022-08-19T22:25:31.575Z,10.60
2022-08-19T22:28:01.681Z,10.71
2022-08-19T22:30:33.166Z,10.47
2022-08-19T22:33:02.954Z,10.72
2022-08-19T22:35:33.258Z,10.58
2022-08-19T22:38:01.611Z,10.46
2022-08-19T22:40:30.325Z,10.31
2022-08-19T22:43:03.149Z,10.72
2022-08-19T22:45:30.866Z,9.79
2022-08-19T22:47:57.663Z,10.34
2022-08-19T22:50:24.367Z,10.51
2022-08-19T22:52:58.928Z,10.48
2022-08-19T22:55:27.125Z,10.13
2022-08-19T22:57:53.855Z,9.94
2022-08-19T23:00:23.496Z,10.63
2022-08-19T23:02:51.726Z,10.39
2022-08-19T23:05:22.176Z,10.66
2022-08-19T23:07:52.653Z,10.37
2022-08-19T23:10:23.213Z,10.57
2022-08-19T23:12:53.549Z,10.07
2022-08-19T23:15:24.709Z,10.73
2022-08-19T23:17:59.298Z,10.40
2022-08-19T23:20:30.793Z,10.77
2022-08-19T23:22:58.541Z,10.27
2022-08-19T23:25:29.024Z,10.66
2022-08-19T23:27:55.668Z,10.32
2022-08-19T23:30:22.310Z,10.19
2022-08-19T23:32:48.826Z,10.31
2022-08-19T23:35:15.331Z,10.62
2022-08-19T23:37:42.036Z,10.50
2022-08-19T23:40:09.136Z,10.69
2022-08-19T23:42:39.539Z,10.46
2022-08-19T23:45:08.004Z,10.32
2022-08-19T23:47:35.951Z,10.34
2022-08-19T23:50:09.627Z,10.08
2022-08-19T23:52:49.768Z,9.96
2022-08-19T23:55:17.478Z,9.97
2022-08-19T23:57:43.966Z,10.37
